Time;durP1;ratioP1;P1;durP2;ratioP2;P2;SDS_P1;SDS_P2;PMS_P1;PMS_P2;Temp;Humidity;BMP_temperature;BMP_pressure;BME280_temperature;BME280_humidity;BME280_pressure;Samples;Min_cycle;Max_cycle;Signal;HPM_P1;HPM_P2
2022/07/18 00:00:59;;;;;;;0.20;0.20;;;12.80;99.90;;;;;;5015820;28;20045;-71
2022/07/18 00:03:25;;;;;;;0.63;0.63;;;12.80;99.90;;;;;;5032040;28;20121;-72
2022/07/18 00:05:50;;;;;;;0.40;0.38;;;12.80;99.90;;;;;;5015651;28;20516;-71
2022/07/18 00:08:16;;;;;;;0.00;0.00;;;12.70;99.90;;;;;;5015502;28;20038;-71
2022/07/18 00:10:42;;;;;;;0.00;0.00;;;12.70;99.90;;;;;;5015467;28;20100;-71
2022/07/18 00:13:07;;;;;;;0.08;0.08;;;12.70;99.90;;;;;;5030184;28;20037;-72
2022/07/18 00:15:33;;;;;;;0.00;0.00;;;12.70;99.90;;;;;;5035444;28;20091;-71
2022/07/18 00:17:58;;;;;;;0.00;0.00;;;12.70;99.90;;;;;;5035152;28;20072;-71
2022/07/18 00:20:24;;;;;;;4.47;0.15;;;12.60;99.90;;;;;;5034999;28;20168;-71
2022/07/18 00:22:50;;;;;;;0.10;0.10;;;12.60;99.90;;;;;;5022623;28;20056;-71
2022/07/18 00:25:15;;;;;;;0.77;0.47;;;12.60;99.90;;;;;;5015368;28;20069;-71
2022/07/18 00:27:41;;;;;;;0.25;0.17;;;12.50;99.90;;;;;;5015569;28;20517;-71
2022/07/18 00:30:08;;;;;;;0.22;0.15;;;12.50;99.90;;;;;;5015293;28;20041;-71
2022/07/18 00:32:34;;;;;;;0.32;0.28;;;12.50;99.90;;;;;;5024619;28;20052;-71
2022/07/18 00:34:59;;;;;;;0.63;0.43;;;12.50;99.90;;;;;;5034918;28;20404;-71
2022/07/18 00:37:25;;;;;;;9.38;0.43;;;12.50;99.90;;;;;;5034760;28;20096;-71
2022/07/18 00:39:50;;;;;;;0.03;0.00;;;12.50;99.90;;;;;;5034612;28;20052;-71
2022/07/18 00:42:16;;;;;;;0.20;0.17;;;12.50;99.90;;;;;;5027597;28;20038;-72
2022/07/18 00:44:42;;;;;;;0.00;0.00;;;12.40;99.90;;;;;;5015163;28;20045;-71
2022/07/18 00:47:08;;;;;;;0.77;0.38;;;12.50;99.90;;;;;;5014876;28;20034;-71
2022/07/18 00:49:33;;;;;;;0.00;0.00;;;12.40;99.90;;;;;;5014924;28;20092;-71
2022/07/18 00:51:59;;;;;;;0.08;0.05;;;12.50;99.90;;;;;;5019084;28;20037;-71
2022/07/18 00:54:25;;;;;;;0.00;0.00;;;12.50;99.90;;;;;;5034545;28;20411;-71
2022/07/18 00:56:51;;;;;;;1.90;0.47;;;12.50;99.90;;;;;;5034479;28;20164;-71
2022/07/18 00:59:18;;;;;;;0.13;0.13;;;12.40;99.90;;;;;;5034411;28;20512;-71
2022/07/18 01:01:45;;;;;;;0.10;0.10;;;12.40;99.90;;;;;;5031769;28;20132;-71
2022/07/18 01:04:14;;;;;;;0.00;0.00;;;12.20;99.90;;;;;;5014564;28;20050;-71
2022/07/18 01:06:39;;;;;;;0.10;0.10;;;12.20;99.90;;;;;;5014478;28;20046;-71
2022/07/18 01:09:06;;;;;;;0.05;0.05;;;12.20;99.90;;;;;;5014308;28;20117;-71
2022/07/18 01:11:32;;;;;;;0.43;0.30;;;12.20;99.90;;;;;;5027232;28;20042;-72
2022/07/18 01:13:59;;;;;;;0.00;0.00;;;12.20;99.90;;;;;;5034356;28;20038;-71
2022/07/18 01:16:25;;;;;;;0.75;0.40;;;12.20;99.90;;;;;;5034256;28;20060;-71
2022/07/18 01:18:51;;;;;;;0.20;0.15;;;12.20;99.90;;;;;;5033800;28;20042;-71
2022/07/18 01:21:17;;;;;;;0.10;0.10;;;12.10;99.90;;;;;;5034107;28;20124;-71
2022/07/18 01:23:44;;;;;;;0.00;0.00;;;12.10;99.90;;;;;;5015750;28;20046;-71
2022/07/18 01:26:12;;;;;;;0.00;0.00;;;12.10;99.90;;;;;;5014387;28;20041;-71
2022/07/18 01:28:38;;;;;;;0.00;0.00;;;12.10;99.90;;;;;;5014299;28;20081;-71
2022/07/18 01:31:03;;;;;;;0.00;0.00;;;12.10;99.90;;;;;;5014277;28;20073;-70
2022/07/18 01:33:32;;;;;;;2.28;0.88;;;12.20;99.90;;;;;;5013880;28;20089;-71
2022/07/18 01:36:00;;;;;;;0.00;0.00;;;12.20;99.90;;;;;;5012791;28;20437;-71
2022/07/18 01:38:27;;;;;;;0.00;0.00;;;12.20;99.90;;;;;;5014072;28;20396;-71
2022/07/18 01:40:52;;;;;;;0.47;0.38;;;12.20;99.90;;;;;;5014054;28;20100;-71
2022/07/18 01:43:18;;;;;;;0.45;0.10;;;12.20;99.90;;;;;;5025713;28;20041;-71
2022/07/18 01:45:43;;;;;;;0.20;0.10;;;12.10;99.90;;;;;;5033622;28;20103;-71
2022/07/18 01:48:09;;;;;;;0.20;0.20;;;12.10;99.90;;;;;;5033519;28;20064;-71
2022/07/18 01:50:35;;;;;;;0.00;0.00;;;12.10;99.90;;;;;;5033778;28;20495;-71
2022/07/18 01:53:00;;;;;;;0.30;0.25;;;12.10;99.90;;;;;;5022165;28;20042;-71
2022/07/18 01:55:26;;;;;;;0.80;0.30;;;12.10;99.90;;;;;;5013630;28;20041;-71
2022/07/18 01:57:51;;;;;;;0.00;0.00;;;12.10;99.90;;;;;;5019555;28;20052;-71
2022/07/18 02:00:17;;;;;;;0.85;0.32;;;12.20;99.90;;;;;;5013342;28;20050;-71
2022/07/18 02:02:43;;;;;;;0.35;0.30;;;12.20;99.90;;;;;;5013334;28;20042;-71
2022/07/18 02:05:09;;;;;;;0.20;0.20;;;12.10;99.90;;;;;;5024072;28;20044;-71
2022/07/18 02:07:40;;;;;;;0.00;0.00;;;12.20;99.90;;;;;;5022849;28;20037;-71
2022/07/18 02:10:12;;;;;;;0.50;0.32;;;12.10;99.90;;;;;;5033193;28;20069;-71
2022/07/18 02:12:38;;;;;;;0.20;0.20;;;12.00;99.90;;;;;;5033277;28;20051;-71
2022/07/18 02:15:05;;;;;;;0.00;0.00;;;12.00;99.90;;;;;;5031737;28;20407;-71
2022/07/18 02:17:31;;;;;;;1.33;0.65;;;12.00;99.90;;;;;;5027482;28;20048;-71
2022/07/18 02:19:57;;;;;;;1.20;1.00;;;12.00;99.90;;;;;;5012949;28;20128;-71
2022/07/18 02:22:23;;;;;;;0.00;0.00;;;12.00;99.90;;;;;;5013196;28;20096;-71
2022/07/18 02:24:50;;;;;;;0.90;0.25;;;12.00;99.90;;;;;;5011683;28;20050;-71
2022/07/18 02:27:16;;;;;;;0.00;0.00;;;12.00;99.90;;;;;;5015550;28;20053;-71
2022/07/18 02:29:41;;;;;;;0.10;0.10;;;11.90;99.90;;;;;;5032819;28;20045;-71
2022/07/18 02:32:07;;;;;;;0.00;0.00;;;11.90;99.90;;;;;;5032699;28;20056;-71
2022/07/18 02:34:33;;;;;;;0.60;0.50;;;11.90;99.90;;;;;;5018414;28;20087;-71
2022/07/18 02:36:59;;;;;;;3.38;0.95;;;12.00;99.90;;;;;;5012915;28;20447;-71
2022/07/18 02:39:25;;;;;;;0.15;0.15;;;12.00;99.90;;;;;;5012917;28;20050;-71
2022/07/18 02:41:50;;;;;;;0.13;0.10;;;12.00;99.90;;;;;;5012809;28;20396;-71
2022/07/18 02:44:16;;;;;;;0.00;0.00;;;12.10;99.90;;;;;;5023644;28;20104;-71
2022/07/18 02:46:42;;;;;;;0.75;0.63;;;12.10;99.90;;;;;;5032356;28;20041;-71
2022/07/18 02:49:08;;;;;;;0.30;0.22;;;12.10;99.90;;;;;;5031056;28;20064;-71
2022/07/18 02:51:34;;;;;;;0.10;0.10;;;12.10;99.90;;;;;;5032509;28;20127;-71
2022/07/18 02:53:59;;;;;;;0.65;0.63;;;12.20;99.90;;;;;;5020751;28;20315;-71
2022/07/18 02:56:25;;;;;;;0.15;0.15;;;12.20;99.90;;;;;;5011980;28;20447;-71
2022/07/18 02:58:51;;;;;;;0.15;0.08;;;12.20;99.90;;;;;;5012751;28;20054;-71
2022/07/18 03:01:16;;;;;;;0.52;0.45;;;12.30;99.90;;;;;;5012560;28;20130;-71
2022/07/18 03:03:42;;;;;;;0.32;0.32;;;12.30;99.90;;;;;;5020611;28;20132;-71
2022/07/18 03:06:08;;;;;;;1.27;0.32;;;12.30;99.90;;;;;;5032244;28;20044;-71
2022/07/18 03:08:33;;;;;;;0.10;0.10;;;12.30;99.90;;;;;;5032241;28;20099;-71
2022/07/18 03:10:59;;;;;;;0.17;0.17;;;12.30;99.90;;;;;;5032340;28;20499;-71
2022/07/18 03:13:24;;;;;;;1.00;0.85;;;12.30;99.90;;;;;;5025788;28;20455;-71
2022/07/18 03:15:50;;;;;;;0.47;0.40;;;12.20;99.90;;;;;;5012532;28;20073;-71
2022/07/18 03:18:17;;;;;;;0.00;0.00;;;12.20;99.90;;;;;;5012150;28;20042;-71
2022/07/18 03:20:43;;;;;;;0.75;0.50;;;12.20;99.90;;;;;;5012408;28;20042;-71
2022/07/18 03:23:09;;;;;;;0.22;0.22;;;12.20;99.90;;;;;;5015490;28;20060;-71
2022/07/18 03:25:35;;;;;;;0.30;0.30;;;12.20;99.90;;;;;;5032098;28;20045;-71
2022/07/18 03:28:00;;;;;;;0.98;0.70;;;12.10;99.90;;;;;;5031999;28;20049;-71
2022/07/18 03:30:26;;;;;;;0.17;0.10;;;12.00;99.90;;;;;;5031975;28;20046;-71
2022/07/18 03:32:52;;;;;;;0.10;0.10;;;12.00;99.90;;;;;;5030241;28;20045;-71
2022/07/18 03:35:17;;;;;;;0.70;0.32;;;11.90;99.90;;;;;;5012275;28;20549;-71
2022/07/18 03:37:43;;;;;;;0.00;0.00;;;11.90;99.90;;;;;;5012194;28;20121;-71
2022/07/18 03:40:09;;;;;;;0.47;0.45;;;12.00;99.90;;;;;;5012246;28;20033;-71
2022/07/18 03:42:39;;;;;;;0.00;0.00;;;12.00;99.90;;;;;;5012120;28;20401;-71
2022/07/18 03:45:07;;;;;;;0.43;0.30;;;12.00;99.90;;;;;;5029839;28;20151;-71
2022/07/18 03:47:33;;;;;;;0.05;0.05;;;12.00;99.90;;;;;;5031199;28;20517;-71
2022/07/18 03:49:59;;;;;;;0.80;0.47;;;12.00;99.90;;;;;;4992560;28;20043;-71
2022/07/18 03:52:24;;;;;;;0.15;0.15;;;12.10;99.90;;;;;;5008030;28;20045;-71
2022/07/18 03:54:50;;;;;;;0.22;0.22;;;12.20;99.90;;;;;;5028031;28;20053;-71
2022/07/18 03:57:15;;;;;;;1.45;0.32;;;12.30;99.90;;;;;;5031857;28;20053;-71
2022/07/18 03:59:41;;;;;;;0.80;0.63;;;12.30;99.90;;;;;;5031571;28;20041;-71
2022/07/18 04:02:07;;;;;;;0.00;0.00;;;12.40;99.90;;;;;;5031527;28;20044;-71
2022/07/18 04:04:32;;;;;;;1.95;0.50;;;12.60;99.90;;;;;;5014063;28;20321;-71
2022/07/18 04:06:59;;;;;;;0.20;0.15;;;12.50;99.90;;;;;;5013796;28;20563;-71
2022/07/18 04:09:26;;;;;;;0.13;0.13;;;12.40;99.90;;;;;;5015677;28;20453;-71
2022/07/18 04:11:51;;;;;;;0.00;0.00;;;12.40;99.90;;;;;;5015458;28;20042;-70
2022/07/18 04:14:17;;;;;;;0.73;0.40;;;12.40;99.90;;;;;;5030463;28;20618;-71
2022/07/18 04:16:43;;;;;;;0.35;0.20;;;12.40;99.90;;;;;;5035188;28;20045;-71
2022/07/18 04:19:09;;;;;;;0.25;0.03;;;12.40;99.90;;;;;;5035309;28;20045;-72
2022/07/18 04:21:35;;;;;;;0.00;0.00;;;12.40;99.90;;;;;;5035276;28;20091;-71
2022/07/18 04:24:00;;;;;;;0.00;0.00;;;12.50;99.90;;;;;;5019408;28;20554;-72
2022/07/18 04:26:26;;;;;;;0.30;0.30;;;12.60;99.90;;;;;;5015251;28;20137;-71
2022/07/18 04:28:51;;;;;;;0.10;0.10;;;12.80;99.90;;;;;;5015446;28;20093;-71
2022/07/18 04:31:17;;;;;;;0.00;0.00;;;12.90;99.90;;;;;;5015182;28;20103;-71
2022/07/18 04:33:43;;;;;;;0.20;0.20;;;13.10;99.90;;;;;;5024093;28;20052;-71
2022/07/18 04:36:08;;;;;;;0.00;0.00;;;13.30;99.90;;;;;;5034987;28;20452;-71
2022/07/18 04:38:37;;;;;;;0.25;0.20;;;13.50;99.90;;;;;;5034561;28;20121;-71
2022/07/18 04:41:05;;;;;;;0.00;0.00;;;13.70;99.90;;;;;;5034634;28;20038;-71
2022/07/18 04:43:31;;;;;;;1.00;0.57;;;13.90;99.90;;;;;;5027583;28;20065;-71
2022/07/18 04:45:57;;;;;;;0.25;0.20;;;14.10;99.90;;;;;;5015251;28;20042;-71
2022/07/18 04:48:23;;;;;;;0.13;0.13;;;14.30;99.90;;;;;;5014959;28;20042;-71
2022/07/18 04:50:48;;;;;;;0.00;0.00;;;14.40;99.90;;;;;;5015050;28;20407;-71
2022/07/18 04:53:14;;;;;;;0.22;0.22;;;14.60;99.90;;;;;;5018325;28;20488;-71
2022/07/18 04:55:39;;;;;;;0.35;0.20;;;14.80;99.90;;;;;;5034512;28;20050;-71
2022/07/18 04:58:05;;;;;;;1.23;0.60;;;14.90;99.90;;;;;;5034555;28;20084;-72
2022/07/18 05:00:31;;;;;;;0.43;0.38;;;15.10;99.90;;;;;;5031354;28;20077;-71
2022/07/18 05:02:57;;;;;;;1.13;0.75;;;15.20;99.90;;;;;;5029888;28;20158;-71
2022/07/18 05:05:24;;;;;;;0.38;0.22;;;15.20;99.90;;;;;;5011001;28;20048;-71
2022/07/18 05:07:50;;;;;;;0.17;0.13;;;15.30;99.90;;;;;;5010258;28;20038;-72
2022/07/18 05:10:19;;;;;;;0.13;0.13;;;15.40;99.90;;;;;;5011745;28;20070;-72
2022/07/18 05:12:46;;;;;;;0.43;0.40;;;15.50;99.90;;;;;;5011594;28;20732;-71
2022/07/18 05:15:14;;;;;;;2.88;0.73;;;15.70;99.90;;;;;;5011997;28;20386;-72
2022/07/18 05:17:40;;;;;;;0.00;0.00;;;15.90;99.90;;;;;;5010804;28;20042;-71
2022/07/18 05:20:08;;;;;;;8.73;1.27;;;16.10;99.90;;;;;;5011454;28;20033;-72
2022/07/18 05:22:35;;;;;;;0.20;0.20;;;16.30;99.90;;;;;;5011155;28;20564;-72
2022/07/18 05:25:01;;;;;;;0.10;0.08;;;16.40;99.90;;;;;;5029307;28;20045;-72
2022/07/18 05:27:27;;;;;;;0.00;0.00;;;16.60;99.90;;;;;;5026615;28;20121;-72
2022/07/18 05:29:52;;;;;;;0.00;0.00;;;16.70;99.90;;;;;;5013590;28;20539;-72
2022/07/18 05:32:18;;;;;;;0.20;0.20;;;16.80;99.90;;;;;;5011369;28;20402;-72
2022/07/18 05:34:44;;;;;;;0.00;0.00;;;16.90;99.90;;;;;;5014291;28;20038;-72
2022/07/18 05:37:09;;;;;;;2.05;1.02;;;17.10;99.90;;;;;;5014146;28;20042;-72
2022/07/18 05:39:35;;;;;;;0.22;0.22;;;17.30;99.90;;;;;;5014462;28;20081;-72
2022/07/18 05:42:02;;;;;;;0.80;0.52;;;17.50;99.90;;;;;;5014017;28;20034;-72
2022/07/18 05:44:27;;;;;;;0.30;0.25;;;17.70;99.90;;;;;;5014354;28;20077;-72
2022/07/18 05:46:53;;;;;;;0.25;0.25;;;17.90;99.90;;;;;;5013493;28;20131;-72
2022/07/18 05:49:19;;;;;;;1.77;0.65;;;18.10;99.90;;;;;;5013756;28;20038;-72
2022/07/18 05:51:45;;;;;;;0.13;0.13;;;18.10;99.90;;;;;;5013871;28;20050;-71
2022/07/18 05:54:11;;;;;;;0.00;0.00;;;18.20;99.90;;;;;;5013978;28;20132;-73
2022/07/18 05:56:36;;;;;;;0.22;0.20;;;18.40;99.90;;;;;;5013687;28;20489;-72
2022/07/18 05:59:02;;;;;;;1.40;0.28;;;18.50;99.90;;;;;;5013988;28;20052;-72
2022/07/18 06:01:28;;;;;;;0.47;0.30;;;18.60;99.90;;;;;;5013813;28;20616;-72
2022/07/18 06:03:53;;;;;;;1.35;0.55;;;18.70;99.90;;;;;;5013746;28;20084;-71
2022/07/18 06:06:19;;;;;;;0.00;0.00;;;18.80;99.90;;;;;;5013696;28;20069;-72
2022/07/18 06:08:45;;;;;;;0.60;0.30;;;18.90;99.90;;;;;;5013578;28;20042;-72
2022/07/18 06:11:11;;;;;;;0.55;0.43;;;19.20;99.90;;;;;;5012117;28;20108;-72
2022/07/18 06:13:39;;;;;;;0.47;0.20;;;19.20;99.90;;;;;;5010516;28;20481;-72
2022/07/18 06:16:06;;;;;;;4.57;1.55;;;19.40;99.90;;;;;;5009366;28;20079;-72
2022/07/18 06:18:32;;;;;;;0.40;0.35;;;19.60;99.80;;;;;;5010382;28;20074;-72
2022/07/18 06:20:57;;;;;;;0.00;0.00;;;20.00;99.10;;;;;;5010494;28;20092;-72
2022/07/18 06:23:23;;;;;;;0.10;0.10;;;20.30;96.50;;;;;;5010222;28;20057;-72
2022/07/18 06:25:49;;;;;;;0.00;0.00;;;20.70;86.90;;;;;;5010337;28;20153;-72
2022/07/18 06:28:14;;;;;;;0.57;0.52;;;21.00;90.00;;;;;;5010636;28;20091;-72
2022/07/18 06:30:40;;;;;;;0.57;0.50;;;21.30;89.70;;;;;;5010967;28;20046;-72
2022/07/18 06:33:07;;;;;;;0.45;0.40;;;21.60;87.40;;;;;;5010105;28;20064;-72
2022/07/18 06:35:33;;;;;;;0.00;0.00;;;21.90;84.80;;;;;;5008944;28;20061;-72
2022/07/18 06:37:59;;;;;;;0.40;0.25;;;22.00;79.40;;;;;;5009802;28;20046;-72
2022/07/18 06:40:25;;;;;;;0.00;0.00;;;22.30;72.40;;;;;;5009905;28;20053;-73
2022/07/18 06:42:51;;;;;;;0.10;0.10;;;23.10;57.50;;;;;;5008927;28;20050;-74
2022/07/18 06:45:17;;;;;;;1.25;0.43;;;24.20;36.50;;;;;;5010141;28;20152;-73
2022/07/18 06:47:43;;;;;;;0.43;0.30;;;24.60;26.10;;;;;;5010137;28;20560;-71
2022/07/18 06:50:11;;;;;;;0.00;0.00;;;24.60;20.30;;;;;;5010029;28;20120;-71
2022/07/18 06:52:41;;;;;;;0.00;0.00;;;24.40;24.10;;;;;;5009762;28;20128;-71
2022/07/18 06:55:07;;;;;;;0.00;0.00;;;24.10;25.10;;;;;;5010195;28;20042;-73
2022/07/18 06:57:33;;;;;;;1.73;0.25;;;23.70;30.40;;;;;;5009977;28;20061;-74
2022/07/18 06:59:59;;;;;;;0.15;0.15;;;23.60;37.50;;;;;;5009901;28;20061;-73
2022/07/18 07:02:25;;;;;;;0.00;0.00;;;24.10;40.40;;;;;;5009850;28;20041;-73
2022/07/18 07:04:50;;;;;;;0.00;0.00;;;25.10;25.10;;;;;;5009965;28;20053;-74
2022/07/18 07:07:16;;;;;;;0.45;0.22;;;26.00;10.70;;;;;;5009756;28;20041;-74
2022/07/18 07:09:42;;;;;;;0.00;0.00;;;26.70;5.80;;;;;;5010099;28;20053;-73
2022/07/18 07:12:07;;;;;;;2.17;0.35;;;27.00;4.40;;;;;;5011830;28;20053;-73
2022/07/18 07:14:33;;;;;;;1.45;0.63;;;27.40;2.90;;;;;;5013418;28;20054;-75
2022/07/18 07:16:58;;;;;;;0.30;0.30;;;27.80;1.00;;;;;;5013202;28;20049;-74
2022/07/18 07:19:24;;;;;;;0.40;0.20;;;28.10;1.00;;;;;;5013142;28;20038;-74
2022/07/18 07:21:50;;;;;;;1.45;0.30;;;28.30;1.00;;;;;;5013174;28;20046;-74
2022/07/18 07:24:15;;;;;;;0.40;0.40;;;28.70;1.00;;;;;;5013032;28;20108;-74
2022/07/18 07:26:41;;;;;;;0.17;0.17;;;29.10;1.00;;;;;;5012967;28;20400;-74
2022/07/18 07:29:06;;;;;;;0.10;0.10;;;29.40;1.00;;;;;;5012862;28;20048;-72
2022/07/18 07:31:32;;;;;;;0.00;0.00;;;29.50;1.00;;;;;;5012651;28;20045;-72
2022/07/18 07:33:58;;;;;;;0.35;0.30;;;29.70;1.00;;;;;;5012338;28;20089;-73
2022/07/18 07:36:24;;;;;;;0.00;0.00;;;30.00;1.00;;;;;;5012502;28;20060;-73
2022/07/18 07:38:49;;;;;;;0.00;0.00;;;30.00;1.00;;;;;;5012369;28;20107;-73
2022/07/18 07:41:15;;;;;;;0.68;0.05;;;30.60;1.00;;;;;;5013381;28;20038;-73
2022/07/18 07:43:40;;;;;;;0.52;0.20;;;30.50;1.00;;;;;;5016621;28;20084;-74
2022/07/18 07:46:06;;;;;;;0.10;0.10;;;30.50;1.00;;;;;;5016415;28;20052;-73
2022/07/18 07:48:32;;;;;;;0.32;0.22;;;31.10;1.00;;;;;;5016336;28;20050;-74
2022/07/18 07:50:57;;;;;;;0.43;0.35;;;31.00;1.00;;;;;;5016258;28;20050;-73
2022/07/18 07:53:23;;;;;;;0.93;0.30;;;30.20;1.00;;;;;;5016148;28;20046;-73
2022/07/18 07:55:49;;;;;;;1.08;0.35;;;29.70;1.00;;;;;;5016457;28;20038;-73
2022/07/18 07:58:14;;;;;;;0.35;0.20;;;29.80;1.00;;;;;;5015915;28;20056;-73
2022/07/18 08:00:40;;;;;;;0.70;0.20;;;30.30;1.00;;;;;;5015995;28;20053;-73
2022/07/18 08:03:07;;;;;;;0.00;0.00;;;30.70;1.00;;;;;;5015984;28;20077;-73
2022/07/18 08:05:38;;;;;;;0.70;0.28;;;31.00;1.00;;;;;;5016094;28;20054;-73
2022/07/18 08:08:05;;;;;;;0.32;0.15;;;31.10;1.00;;;;;;5016080;28;20125;-73
2022/07/18 08:10:31;;;;;;;0.65;0.60;;;31.20;1.00;;;;;;5016235;28;20076;-73
2022/07/18 08:12:57;;;;;;;0.10;0.10;;;31.10;1.00;;;;;;5016098;28;20084;-73
2022/07/18 08:15:24;;;;;;;0.08;0.05;;;31.00;1.00;;;;;;5016169;28;20480;-73
2022/07/18 08:17:50;;;;;;;5.78;0.82;;;31.10;1.00;;;;;;5015756;28;20046;-73
2022/07/18 08:20:18;;;;;;;0.25;0.13;;;31.50;1.00;;;;;;5015757;28;20038;-74
2022/07/18 08:22:55;;;;;;;0.65;0.35;;;30.90;1.00;;;;;;5015664;28;20108;-73
2022/07/18 08:25:21;;;;;;;0.30;0.15;;;29.80;1.00;;;;;;5015856;28;20129;-73
2022/07/18 08:27:47;;;;;;;0.45;0.32;;;29.40;1.00;;;;;;5015600;28;20042;-73
2022/07/18 08:30:12;;;;;;;0.00;0.00;;;29.40;1.00;;;;;;5015723;28;20445;-73
2022/07/18 08:32:38;;;;;;;0.03;0.03;;;29.60;1.00;;;;;;5015403;28;20460;-73
2022/07/18 08:35:04;;;;;;;1.50;0.55;;;30.10;1.00;;;;;;5015329;28;20037;-73
2022/07/18 08:37:30;;;;;;;0.00;0.00;;;30.70;1.00;;;;;;5015444;28;20449;-73
2022/07/18 08:39:56;;;;;;;3.72;0.90;;;30.80;1.00;;;;;;5015168;28;20535;-73
2022/07/18 08:42:26;;;;;;;0.43;0.40;;;31.40;1.00;;;;;;5015174;28;20037;-74
2022/07/18 08:44:56;;;;;;;0.13;0.10;;;32.00;1.00;;;;;;5015303;28;20498;-72
2022/07/18 08:47:23;;;;;;;0.00;0.00;;;32.50;1.00;;;;;;5015007;28;20056;-73
2022/07/18 08:49:49;;;;;;;0.10;0.10;;;32.80;1.00;;;;;;5015297;28;20053;-73
2022/07/18 08:52:15;;;;;;;0.00;0.00;;;32.70;1.00;;;;;;5014309;28;20046;-74
2022/07/18 08:54:42;;;;;;;0.65;0.63;;;32.60;1.00;;;;;;5012962;28;20046;-73
2022/07/18 08:57:08;;;;;;;0.47;0.28;;;32.50;1.00;;;;;;5015451;28;20054;-74
2022/07/18 08:59:34;;;;;;;0.00;0.00;;;32.20;1.00;;;;;;5014951;28;20057;-73
2022/07/18 09:02:00;;;;;;;0.00;0.00;;;31.80;1.00;;;;;;5014615;28;20489;-73
2022/07/18 09:04:36;;;;;;;0.08;0.08;;;31.30;1.00;;;;;;5014817;28;20050;-73
2022/07/18 09:07:03;;;;;;;0.32;0.17;;;31.00;1.00;;;;;;5014910;28;20042;-74
2022/07/18 09:09:29;;;;;;;1.73;0.82;;;30.80;1.00;;;;;;5014710;28;20049;-73
2022/07/18 09:12:15;;;;;;;0.32;0.17;;;30.30;1.00;;;;;;5014799;28;20045;-73
2022/07/18 09:14:43;;;;;;;0.55;0.45;;;29.70;1.00;;;;;;5014216;28;20062;-73
2022/07/18 09:17:26;;;;;;;0.52;0.30;;;29.30;1.00;;;;;;5014885;28;20038;-73
2022/07/18 09:20:16;;;;;;;2.30;0.80;;;29.10;1.00;;;;;;5014369;28;20046;-73
2022/07/18 09:22:47;;;;;;;0.47;0.22;;;29.20;1.00;;;;;;5013913;28;20484;-73
2022/07/18 09:25:13;;;;;;;0.22;0.20;;;29.40;1.00;;;;;;5014202;28;20550;-73
2022/07/18 09:27:48;;;;;;;0.13;0.10;;;29.80;1.00;;;;;;5014375;28;20107;-74
2022/07/18 09:30:24;;;;;;;0.00;0.00;;;30.30;1.00;;;;;;5014309;28;20514;-73
2022/07/18 09:33:06;;;;;;;0.20;0.10;;;30.60;1.00;;;;;;5013143;28;20077;-74
2022/07/18 09:35:46;;;;;;;0.45;0.28;;;30.70;1.00;;;;;;5014584;28;20045;-73
2022/07/18 09:38:14;;;;;;;0.08;0.08;;;30.60;1.00;;;;;;5014172;28;20046;-73
2022/07/18 09:40:41;;;;;;;0.17;0.10;;;30.70;1.00;;;;;;5014044;28;20053;-73
2022/07/18 09:43:10;;;;;;;0.15;0.15;;;31.00;1.00;;;;;;5014248;28;20125;-73
2022/07/18 09:45:47;;;;;;;2.65;1.17;;;31.50;1.00;;;;;;5013936;28;20189;-73
2022/07/18 09:48:15;;;;;;;0.52;0.10;;;31.70;1.00;;;;;;5013947;28;20054;-73
2022/07/18 09:50:49;;;;;;;0.00;0.00;;;32.00;1.00;;;;;;5014224;28;20069;-74
2022/07/18 09:53:19;;;;;;;0.00;0.00;;;32.20;1.00;;;;;;5013967;28;20168;-73
2022/07/18 09:55:53;;;;;;;0.65;0.38;;;32.00;1.00;;;;;;5014038;28;20046;-73
2022/07/18 09:58:24;;;;;;;0.00;0.00;;;32.00;1.00;;;;;;5013657;28;20089;-73
2022/07/18 10:00:51;;;;;;;0.25;0.15;;;32.00;1.00;;;;;;5013996;28;20307;-74
2022/07/18 10:03:18;;;;;;;0.00;0.00;;;31.70;1.00;;;;;;5013770;28;20130;-74
2022/07/18 10:05:46;;;;;;;0.20;0.20;;;31.20;1.00;;;;;;5012219;28;20057;-73
2022/07/18 10:08:17;;;;;;;0.57;0.30;;;31.20;1.00;;;;;;5012237;28;20485;-73
2022/07/18 10:10:45;;;;;;;0.03;0.03;;;31.10;1.00;;;;;;5013546;28;20400;-73
2022/07/18 10:13:11;;;;;;;0.00;0.00;;;30.90;1.00;;;;;;5013701;28;20116;-73
2022/07/18 10:15:39;;;;;;;0.22;0.20;;;30.90;1.00;;;;;;5014129;28;20041;-73
2022/07/18 10:18:08;;;;;;;1.20;0.65;;;31.00;1.00;;;;;;5014184;28;20061;-73
2022/07/18 10:20:38;;;;;;;0.82;0.70;;;31.30;1.00;;;;;;5013146;28;20038;-74
2022/07/18 10:23:17;;;;;;;0.80;0.47;;;31.70;1.00;;;;;;5009817;28;20451;-73
2022/07/18 10:25:43;;;;;;;0.15;0.15;;;31.60;1.00;;;;;;5010613;28;20129;-74
2022/07/18 10:28:13;;;;;;;0.25;0.13;;;31.70;1.00;;;;;;5010348;28;20112;-73
2022/07/18 10:30:49;;;;;;;1.45;0.75;;;31.80;1.00;;;;;;5010256;28;20057;-74
2022/07/18 10:33:41;;;;;;;0.30;0.30;;;31.70;1.00;;;;;;5008799;28;20053;-74
2022/07/18 10:36:12;;;;;;;0.10;0.05;;;31.60;1.00;;;;;;5010313;28;20085;-74
2022/07/18 10:38:39;;;;;;;0.57;0.40;;;31.60;1.00;;;;;;5010072;28;20145;-73
2022/07/18 10:41:10;;;;;;;0.32;0.32;;;31.60;1.00;;;;;;5010202;28;20050;-73
2022/07/18 10:43:39;;;;;;;0.20;0.20;;;31.70;1.00;;;;;;5010127;28;20058;-74
2022/07/18 10:46:07;;;;;;;0.28;0.28;;;31.70;1.00;;;;;;5010357;28;20050;-74
2022/07/18 10:48:32;;;;;;;0.38;0.25;;;31.70;1.00;;;;;;5008609;28;20046;-73
2022/07/18 10:51:11;;;;;;;0.32;0.32;;;31.80;1.00;;;;;;5010006;28;20520;-74
2022/07/18 10:54:01;;;;;;;0.77;0.28;;;31.90;1.00;;;;;;5009766;28;20085;-74
2022/07/18 10:56:36;;;;;;;0.38;0.38;;;32.10;1.00;;;;;;5009545;28;20100;-74
2022/07/18 10:59:15;;;;;;;0.28;0.25;;;32.40;1.00;;;;;;5009838;28;20085;-74
2022/07/18 11:01:55;;;;;;;0.40;0.20;;;32.60;1.00;;;;;;5009913;28;20088;-74
2022/07/18 11:04:25;;;;;;;1.20;0.70;;;32.70;1.00;;;;;;5009674;28;20046;-74
2022/07/18 11:07:05;;;;;;;2.53;0.30;;;32.50;1.00;;;;;;5009601;28;20045;-74
2022/07/18 11:09:35;;;;;;;0.35;0.25;;;32.40;1.00;;;;;;5009769;28;20078;-74
2022/07/18 11:12:17;;;;;;;0.43;0.38;;;32.20;1.00;;;;;;5009637;28;20124;-74
2022/07/18 11:15:04;;;;;;;0.00;0.00;;;32.40;1.00;;;;;;5009553;28;20042;-74
2022/07/18 11:17:51;;;;;;;0.10;0.10;;;32.80;1.00;;;;;;5007646;28;20061;-74
2022/07/18 11:20:25;;;;;;;2.88;0.82;;;33.30;1.00;;;;;;5009906;28;20050;-74
2022/07/18 11:22:51;;;;;;;0.30;0.28;;;33.70;1.00;;;;;;5009463;28;20420;-74
2022/07/18 11:25:17;;;;;;;0.10;0.10;;;34.20;1.00;;;;;;5009494;28;20049;-73
2022/07/18 11:27:44;;;;;;;0.20;0.20;;;34.50;1.00;;;;;;5009516;28;20104;-75
2022/07/18 11:30:15;;;;;;;0.85;0.35;;;34.60;1.00;;;;;;5009700;28;20046;-73
2022/07/18 11:32:41;;;;;;;2.63;1.08;;;34.60;1.00;;;;;;5008127;28;20583;-73
2022/07/18 11:35:08;;;;;;;0.85;0.43;;;34.50;1.00;;;;;;5009503;28;20053;-73
2022/07/18 11:37:35;;;;;;;0.00;0.00;;;34.90;1.00;;;;;;5009330;28;20045;-74
2022/07/18 11:40:09;;;;;;;0.30;0.25;;;35.50;1.00;;;;;;5009404;28;20038;-74
2022/07/18 11:42:36;;;;;;;0.52;0.38;;;35.60;1.00;;;;;;5009516;28;20422;-73
2022/07/18 11:45:02;;;;;;;1.60;1.15;;;35.90;1.00;;;;;;5009300;28;20137;-73
2022/07/18 11:47:28;;;;;;;0.15;0.10;;;35.80;1.00;;;;;;5009200;28;20124;-74
2022/07/18 11:49:55;;;;;;;0.25;0.22;;;36.10;1.00;;;;;;5009430;28;20044;-74
2022/07/18 11:52:21;;;;;;;0.10;0.10;;;36.30;1.00;;;;;;5008001;28;20439;-74
2022/07/18 11:54:47;;;;;;;0.80;0.43;;;36.00;1.00;;;;;;5009267;28;20046;-74
2022/07/18 11:57:12;;;;;;;0.63;0.43;;;36.30;1.00;;;;;;5009146;28;20061;-74
2022/07/18 11:59:45;;;;;;;0.20;0.20;;;36.30;1.00;;;;;;5009341;28;20054;-74
2022/07/18 12:02:11;;;;;;;0.35;0.30;;;36.50;1.00;;;;;;5009149;28;20048;-74
2022/07/18 12:04:38;;;;;;;0.28;0.20;;;36.70;1.00;;;;;;5009199;28;20068;-74
2022/07/18 12:07:23;;;;;;;0.05;0.05;;;36.60;1.00;;;;;;5009198;28;20490;-74
2022/07/18 12:09:50;;;;;;;0.88;0.50;;;36.70;1.00;;;;;;5008859;28;20481;-74
2022/07/18 12:12:18;;;;;;;0.85;0.52;;;36.70;1.00;;;;;;5009078;28;20057;-74
2022/07/18 12:14:53;;;;;;;0.50;0.17;;;36.70;1.00;;;;;;5009207;28;20117;-74
2022/07/18 12:17:18;;;;;;;0.70;0.40;;;36.50;1.00;;;;;;5008769;28;20512;-74
2022/07/18 12:19:44;;;;;;;1.52;0.88;;;36.70;1.00;;;;;;5010242;28;20133;-74
2022/07/18 12:22:11;;;;;;;1.75;0.55;;;36.70;1.00;;;;;;5009097;28;20049;-74
2022/07/18 12:24:49;;;;;;;0.35;0.25;;;36.20;1.00;;;;;;5009208;28;20160;-74
2022/07/18 12:27:22;;;;;;;1.50;0.30;;;36.00;1.00;;;;;;5009797;28;20385;-74
2022/07/18 12:30:25;;;;;;;1.35;0.93;;;36.50;1.00;;;;;;5012837;28;20510;-74
2022/07/18 12:32:56;;;;;;;2.58;0.85;;;37.10;1.00;;;;;;5012441;28;20380;-75
2022/07/18 12:35:27;;;;;;;0.47;0.40;;;36.80;1.00;;;;;;5013820;28;20050;-74
2022/07/18 12:37:58;;;;;;;0.05;0.05;;;37.10;1.00;;;;;;5013709;28;20488;-74
2022/07/18 12:40:37;;;;;;;0.75;0.43;;;37.60;1.00;;;;;;5010553;28;20419;-74
2022/07/18 12:43:08;;;;;;;0.47;0.40;;;37.60;1.00;;;;;;5009592;28;20046;-74
2022/07/18 12:45:35;;;;;;;1.40;0.98;;;37.70;1.00;;;;;;5012008;28;20408;-73
2022/07/18 12:48:01;;;;;;;0.98;0.73;;;37.50;1.00;;;;;;5014631;28;20087;-74
2022/07/18 12:50:27;;;;;;;0.63;0.47;;;37.30;1.00;;;;;;5015549;28;20530;-74
2022/07/18 12:52:54;;;;;;;2.97;1.02;;;37.10;1.00;;;;;;5011886;28;20196;-74